Invercargill (NZNV)

Aerodrome — Elev 5
New Zealand
S046.24.44.669 E168.18.46.771
Loading chart...

Located in the deep south of New Zealand Invercargill is the southern most domestic airport in the country.  Invercargill has a three-gate terminal serving Air New Zealand link flights from Christchurch and Wellington.  Along with the domestic traffic, there is a lot of flight training from the Southland Aeroclubs training organisation 'Southern Wings'.  Flights to and from Stewart Islands Ryans Creek field are also based in and out of Invercargill.

Current Weather

NZNV 271700Z 03005KT 15KM SKC 00/00 Q1023 RMK ALT VATSIM USE ONLY

Published 32 minutes ago

Airport Activity

Loading chart...
Loading chart...

Positions

CallsignRadio Name / Freq / Voice Room / TypeFrequencyVoice RoomType
NZCH-D_CTR Christchurch Control
129.200
nzch-d_ctr
129.200nzch-d_ctr
NZCH-S_CTR Christchurch Control
129.300
nzch-s_ctr
129.300nzch-s_ctr
NZNV_TWR Invercargill Tower
118.500
nznv_twr
118.500nznv_twr
NZNV_ATIS Invercargill ATIS
127.000
nznv_atis
127.000nznv_atis
UNICOM NZZC UNICOM
122.800
unicom_nzzc
122.800unicom_nzzc

Charts